Franklin, TN (37064)

10:08 PM CDT on August 29, 2015 (GMT -0500)
Carnton | | Change Station
CLOSE
Current Station
Personal Weather Station
Location: Franklin, TN
Elevation: 662 ft
Nearby Weather Stations

Elev 662 ft 35.90 °N, 86.87 °W | Updated 29 seconds ago

Partly Cloudy
Partly Cloudy
70.9 °F
Feels Like 70 °F
N
0.0
Wind Variable Wind from SE
Gusts 0.5 mph

Today
High -- | Low -- °F
--% Chance of Precip.
Yesterday
High -- | Low -- °F
Precip. -- in
6:16 AM 7:19 PM
Full, 100% visible
Pressure 30.09 in
Visibility 10.0 miles
Clouds Scattered Clouds 18000 ft
Heat Index 70 °F
Dew Point 66 °F
Humidity 84%
Rainfall 0.00 in
Snow Depth Not available.
UV 0 out of 12
Pollen 10.00 out of 12
Air Quality Not available.
Flu Activity Not available.
METAR KBNA 300253Z 17005KT 10SM SCT180 22/19 A3011 RMK AO2 SLP189 T02170189 53008
Pressure 30.09 in
Visibility 10.0 miles
Clouds Scattered Clouds 18000 ft
Heat Index 70 °F
Dew Point 66 °F
Humidity 84%
Rainfall 0.00 in
Snow Depth Not available.
UV 0 out of 12
Pollen 10.00 out of 12
Air Quality Not available.
Flu Activity Not available.
METAR KBNA 300253Z 17005KT 10SM SCT180 22/19 A3011 RMK AO2 SLP189 T02170189 53008

10-Day Weather Forecast

×

Almanac

Astronomy

Aug. 29, 2015 Rise Set
Actual Time
Civil Twilight
Nautical Twilight
Astronomical Twilight
Moon
Length of Visible Light
Length of Day
Tomorrow will be .
, % of the Moon is Illuminated

Today's Extremes

State Highs State Lows

Community

WunderPhotos

Upload Photos

1,850,857 photos uploaded!

WunderBlogs® & News

Nearby

Air Quality

  Air Quality AQ Index Pollutant
Not available.

Snow Depth

Station Depth Elevation

Earthquake Activity

City Distance Mag. Time & Date
Minimum magnitude displayed is 2.5.

Coastal Water Temperatures

Place Temperature

Stations

Nearby Weather Stations

Station Location Temp. Windchill Dew Point Humidity Wind Precip. Elev Updated Type